Flight Track Log - Related Links

Times and Time Zones

All times are in EDT time to prevent confusion due to time zone crossing. See the SWA2093 flight status page for this flight to view local times or setup timezone preferences in your user account.

Time Position Orientation Groundspeed Altitude Reporting Facility
EDT Latitude Longitude Course Direction KTS MPH feet Rate Location/Type
Sun 11:39:53 PM 39.8167 -104.6333 81° East 195 224 7,300  Level Denver TRACON
Sun 11:41:11 PM 39.8419 -104.5322 72° East 235 270 9,400 1,813 Climbing Denver Center
Sun 11:42:12 PM 39.9125 -104.4842 28° Northeast 313 360 11,500 2,754 Climbing Denver Center
Sun 11:43:00 PM 40.9026 -106.1022 321° Northwest  Level Estimated
Sun 11:43:13 PM 40.0111 -104.5061 350° North 355 409 15,000  Level Denver Center
Sun 11:44:00 PM 40.9714 -106.1990 313° West  Level Estimated
Sun 11:44:14 PM 40.0978 -104.5708 330° Northwest 363 418 18,400  Level Denver Center
Sun 11:45:00 PM 39.8858 -104.5301 81° East  Level FlightAware Approximate
Sun 11:45:15 PM 40.1900 -104.6397 330° Northwest 368 423 21,600  Level Denver Center
Sun 11:46:17 PM 40.2811 -104.7058 331° Northwest 374 430 24,600 2,683 Climbing Denver Center
Sun 11:47:18 PM 40.3767 -104.7769 330° Northwest 393 452 27,100 2,311 Climbing Denver Center
Sun 11:48:19 PM 40.4731 -104.8483 331° Northwest 397 457 29,300 1,820 Climbing Denver Center
Sun 11:49:20 PM 40.5756 -104.9233 331° Northwest 418 481 30,800 1,475 Climbing Denver Center
Sun 11:50:21 PM 40.6814 -105.0039 330° Northwest 433 498 32,300 1,869 Climbing Denver Center
Sun 11:51:22 PM 40.7861 -105.0886 329° Northwest 441 507 34,600 2,213 Climbing Denver Center
Sun 11:52:23 PM 40.8717 -105.1883 319° Northwest 415 478 36,800 1,854 Climbing Denver Center
Sun 11:53:25 PM 40.9728 -105.3025 320° Northwest 406 467 38,400 1,317 Climbing Denver Center
Sun 11:54:26 PM 41.0589 -105.4022 319° Northwest 403 464 39,500 787 Climbing Denver Center
Sun 11:55:27 PM 41.1422 -105.4956 320° Northwest 406 467 40,000 246 Climbing Denver Center
Sun 11:56:28 PM 41.2253 -105.5906 319° Northwest 408 470 40,000  Level Denver Center
Sun 11:57:29 PM 41.3203 -105.7019 319° Northwest 408 470 40,000  Level Denver Center
Sun 11:58:30 PM 41.3828 -105.8161 306° West 402 463 40,000  Level Denver Center
Sun 11:59:31 PM 41.4386 -105.9369 302° West 401 461 40,000  Level Denver Center
Mon 12:00:32 AM 41.5050 -106.0778 302° West 400 460 40,000  Level Denver Center
Mon 12:01:33 AM 41.5617 -106.1992 302° West 401 461 40,000  Level Denver Center
Mon 12:02:34 AM 41.6175 -106.3178 302° West 395 455 40,000  Level Denver Center
Mon 12:03:35 AM 41.6794 -106.4536 301° West 385 443 40,000  Level Denver Center
Mon 12:04:36 AM 41.7383 -106.5789 302° West 380 437 40,000  Level Denver Center
Mon 12:05:37 AM 41.7919 -106.6981 301° West 387 445 40,000  Level Denver Center
Mon 12:06:38 AM 41.8464 -106.8153 302° West 388 447 40,000  Level Denver Center
Mon 12:07:39 AM 41.9086 -106.9533 301° West 388 447 40,000  Level Denver Center
Mon 12:08:40 AM 41.9608 -107.0703 301° West 387 445 40,000  Level Denver Center
Mon 12:09:41 AM 42.0144 -107.1883 301° West 384 442 40,000  Level Denver Center
Mon 12:10:42 AM 42.0761 -107.3267 301° West 385 443 40,000  Level Denver Center
Mon 12:11:37 AM 42.1272 -107.4456 300° West 387 445 40,000  Level Salt Lake Center
Mon 12:12:38 AM 42.1819 -107.5653 302° West 392 451 40,000  Level Salt Lake Center
Mon 12:13:39 AM 42.2364 -107.6886 301° West 397 457 40,000  Level Salt Lake Center
Mon 12:14:40 AM 42.2997 -107.8319 301° West 399 459 40,000  Level Salt Lake Center
Mon 12:15:41 AM 42.3539 -107.9569 300° West 401 461 40,000  Level Salt Lake Center
Mon 12:16:43 AM 42.4189 -108.1014 301° West 403 464 40,000  Level Salt Lake Center
Mon 12:17:44 AM 42.4717 -108.2239 300° West 401 461 40,000  Level Salt Lake Center
Mon 12:18:45 AM 42.5261 -108.3500 300° West 401 461 40,000  Level Salt Lake Center
Mon 12:19:46 AM 42.5894 -108.4978 300° West 405 466 40,000  Level Salt Lake Center
Mon 12:20:47 AM 42.6442 -108.6250 300° West 406 467 40,000  Level Salt Lake Center
Mon 12:21:49 AM 42.7092 -108.7761 300° West 413 475 40,000  Level Salt Lake Center
Mon 12:22:50 AM 42.7647 -108.9064 300° West 417 480 40,000  Level Salt Lake Center
Mon 12:23:51 AM 42.8194 -109.0369 300° West 418 481 40,000  Level Salt Lake Center
Mon 12:24:52 AM 42.8831 -109.1908 299° West 418 481 40,000  Level Salt Lake Center
Mon 12:25:53 AM 42.9378 -109.3228 300° West 418 481 40,000  Level Salt Lake Center
Mon 12:26:55 AM 42.9936 -109.4553 300° West 417 480 40,000  Level Salt Lake Center
Mon 12:27:56 AM 43.0514 -109.5956 299° West 420 483 40,000  Level Salt Lake Center
Mon 12:28:57 AM 43.1094 -109.7347 300° West 421 484 40,000  Level Salt Lake Center
Mon 12:29:58 AM 43.1764 -109.8917 300° West 424 488 40,000  Level Salt Lake Center
Mon 12:30:59 AM 43.2342 -110.0350 299° West 426 490 40,000  Level Salt Lake Center
Mon 12:32:00 AM 43.2989 -110.1944 299° West 429 494 40,000  Level Salt Lake Center
Mon 12:33:02 AM 43.3542 -110.3328 299° West 429 494 40,000  Level Salt Lake Center
Mon 12:34:03 AM 43.4092 -110.4678 299° West 428 493 40,000  Level Salt Lake Center
Mon 12:35:04 AM 43.4650 -110.6061 299° West 428 493 40,000  Level Salt Lake Center
Mon 12:36:05 AM 43.5214 -110.7489 299° West 427 491 40,000  Level Salt Lake Center
Mon 12:37:06 AM 43.5903 -110.9258 298° West 440 506 40,000  Level Salt Lake Center
Mon 12:38:07 AM 43.6486 -111.0686 299° West 430 495 40,000  Level Salt Lake Center
Mon 12:39:08 AM 43.7058 -111.2144 299° West 430 495 40,000  Level Salt Lake Center
Mon 12:40:10 AM 43.7633 -111.3608 299° West 431 496 40,000  Level Salt Lake Center
Mon 12:41:11 AM 43.8214 -111.5111 298° West 437 503 40,000  Level Salt Lake Center
Mon 12:42:12 AM 43.8794 -111.6614 298° West 439 505 40,000  Level Salt Lake Center
Mon 12:43:13 AM 43.9544 -111.7983 307° West 449 517 40,000  Level Salt Lake Center
Mon 12:44:14 AM 44.0408 -111.9253 313° West 452 520 40,000  Level Salt Lake Center
Mon 12:45:15 AM 44.1281 -112.0528 314° West 453 521 40,000  Level Salt Lake Center
Mon 12:46:16 AM 44.2156 -112.1800 314° West 452 520 40,000  Level Salt Lake Center
Mon 12:47:17 AM 44.3028 -112.3106 313° West 455 524 40,000  Level Salt Lake Center
Mon 12:48:18 AM 44.3897 -112.4392 313° West 456 525 40,000  Level Salt Lake Center
Mon 12:49:19 AM 44.4761 -112.5689 313° West 456 525 40,000  Level Salt Lake Center
Mon 12:50:20 AM 44.5608 -112.6964 313° West 450 518 40,000  Level Salt Lake Center
Mon 12:51:21 AM 44.6453 -112.8244 313° West 450 518 40,000  Level Salt Lake Center
Mon 12:52:22 AM 44.7467 -112.9781 313° West 449 517 40,000  Level Salt Lake Center
Mon 12:53:23 AM 44.8308 -113.1061 313° West 448 516 40,000  Level Salt Lake Center
Mon 12:54:24 AM 44.9144 -113.2350 313° West 447 514 40,000  Level Salt Lake Center
Mon 12:55:25 AM 44.9981 -113.3639 313° West 447 514 40,000  Level Salt Lake Center
Mon 12:56:26 AM 45.0822 -113.4939 313° West 447 514 40,000  Level Salt Lake Center
Mon 12:57:28 AM 45.1653 -113.6242 312° West 447 514 40,000  Level Salt Lake Center
Mon 12:58:29 AM 45.2508 -113.7544 313° West 450 518 40,000  Level Salt Lake Center
Mon 12:59:30 AM 45.3444 -113.9008 312° West 450 518 40,000  Level Salt Lake Center
Mon 01:00:31 AM 45.4283 -114.0306 313° West 450 518 40,000  Level Salt Lake Center
Mon 01:01:32 AM 45.5111 -114.1619 312° West 450 518 40,000  Level Salt Lake Center
Mon 01:02:33 AM 45.5936 -114.2936 312° West 450 518 40,000  Level Salt Lake Center
Mon 01:03:34 AM 45.6781 -114.4272 312° West 454 522 40,000  Level Salt Lake Center
Mon 01:04:35 AM 45.7575 -114.5569 311° West 445 512 40,000  Level Salt Lake Center
Mon 01:05:36 AM 45.8397 -114.6886 312° West 444 511 40,000  Level Salt Lake Center
Mon 01:06:37 AM 45.9233 -114.8247 311° West 453 521 40,000  Level Salt Lake Center
Mon 01:07:38 AM 46.0039 -114.9567 311° West 447 514 40,000  Level Salt Lake Center
Mon 01:08:47 AM 46.0931 -115.1017 312° West 442 509 40,000  Level Seattle Center
Mon 01:09:48 AM 46.1739 -115.2361 311° West 442 509 40,000  Level Seattle Center
Mon 01:10:48 AM 46.2703 -115.3950 311° West 442 509 40,000  Level Seattle Center
Mon 01:11:49 AM 46.3494 -115.5289 311° West 441 507 40,000  Level Seattle Center
Mon 01:12:49 AM 46.4300 -115.6622 311° West 441 507 40,000 -694 Level Seattle Center
Mon 01:13:50 AM 46.5094 -115.7953 311° West 440 506 38,600 -2,083 Descending Seattle Center
Mon 01:14:50 AM 46.5869 -115.9286 310° West 436 502 35,800 -3,074 Descending Seattle Center
Mon 01:15:51 AM 46.6697 -116.0686 311° West 449 517 32,400 -3,124 Descending Seattle Center
Mon 01:16:51 AM 46.7550 -116.2122 311° West 463 533 29,500 -2,826 Descending Seattle Center
Mon 01:17:52 AM 46.8378 -116.3508 311° West 459 528 26,700 -2,607 Descending Seattle Center
Mon 01:18:53 AM 46.9161 -116.4842 311° West 440 506 24,200 -2,529 Descending Seattle Center
Mon 01:19:53 AM 46.9894 -116.6114 310° West 416 479 21,600 -2,430 Descending Seattle Center
Mon 01:20:54 AM 47.0592 -116.7336 310° West 397 457 19,300 -2,231 Descending Seattle Center
Mon 01:21:54 AM 47.1278 -116.8506 311° West 383 441 17,100 -2,182 Descending Seattle Center
Mon 01:22:55 AM 47.1725 -116.9825 297° West 361 415 14,900 -1,835 Descending Seattle Center
Mon 01:23:55 AM 47.2133 -117.1117 295° West 347 399 13,400 -1,438 Descending Seattle Center
Mon 01:24:56 AM 47.2592 -117.2186 302° West 309 356 12,000 -1,686 Descending Seattle Center
Mon 01:25:56 AM 47.3278 -117.3103 318° Northwest 301 346 10,000 -1,785 Descending Seattle Center
Mon 01:26:57 AM 47.3853 -117.3897 317° Northwest 286 329 8,400 -1,587 Descending Seattle Center
Mon 01:27:57 AM 47.4394 -117.4656 317° Northwest 272 313 6,800 -1,388 Descending Seattle Center
Mon 01:28:58 AM 47.4919 -117.5367 318° Northwest 259 298 5,600 -1,190 Descending Seattle Center
Mon 01:29:58 AM 47.5356 -117.5964 317° Northwest 215 247 4,400 -992 Descending Seattle Center
Mon 01:30:59 AM 47.5722 -117.6081 348° North 161 185 3,600 -793 Descending Seattle Center
Mon 01:31:59 AM 47.5975 -117.5697 46° Northeast 135 155 2,800 -645 Descending Seattle Center
Mon 01:33:00 AM 47.6197 -117.5369 45° Northeast 130 150 2,300 -246 Descending Seattle Center
Mon 01:34:01 AM 47.6375 -117.5075 48° Northeast 118 136 2,300  Level Seattle Center

Login

Don't have an account? Register now (free) for customized features, flight alerts, and more!